Terminal Aerodrome Forecast
Issued by NWS

Home | Current Version | Previous Version | Text Only | Print | Product List | Glossary On
Versions: 1 2 3 4 5 6 7 8 9 10 11 12 13 14 15 16 17 18 19 20 21 22 23 24 25 26 27
375
FTUS45 KGJT 252340
TAFMTJ
TAF
KMTJ 252340Z 2600/2624 34010G23KT P6SM VCSH BKN060 OVC090
     FM260300 32005KT P6SM VCSH BKN080
     FM260600 17005KT P6SM SCT080
     FM260900 20004KT P6SM BKN080
     FM261800 28004KT P6SM SCT100=

USA.gov is the U.S. government's official web portal to all federal, state and local government web resources and services.